Time;durP1;ratioP1;P1;durP2;ratioP2;P2;SDS_P1;SDS_P2;PMS_P1;PMS_P2;Temp;Humidity;BMP_temperature;BMP_pressure;BME280_temperature;BME280_humidity;BME280_pressure;Samples;Min_cycle;Max_cycle;Signal;HPM_P1;HPM_P2
2023/10/24 00:00:00;;;;;;;4.67;2.47;;;16.70;77.30;17.80;99579.00;;;;5071479;28;20189;-51
2023/10/24 00:02:26;;;;;;;3.33;2.60;;;16.70;76.80;17.90;99572.00;;;;5070085;28;20213;-50
2023/10/24 00:04:52;;;;;;;3.80;2.60;;;16.80;76.50;17.90;99562.00;;;;5070194;28;20177;-51
2023/10/24 00:07:17;;;;;;;4.53;3.10;;;16.80;76.50;17.90;99562.00;;;;5070149;28;20182;-52
2023/10/24 00:09:43;;;;;;;4.20;2.70;;;16.70;76.00;17.80;99564.00;;;;5069757;28;20177;-52
2023/10/24 00:12:09;;;;;;;3.30;2.60;;;16.60;76.90;17.80;99555.00;;;;5069808;28;20193;-52
2023/10/24 00:14:35;;;;;;;4.97;2.77;;;16.60;77.20;17.80;99555.00;;;;5069801;28;20686;-52
2023/10/24 00:17:00;;;;;;;4.57;2.80;;;16.60;76.70;17.80;99553.00;;;;5069463;28;20315;-51
2023/10/24 00:19:26;;;;;;;5.30;2.97;;;16.60;77.10;17.80;99553.00;;;;5069476;28;20181;-51
2023/10/24 00:21:52;;;;;;;4.10;2.40;;;16.50;77.40;17.70;99551.00;;;;5060321;28;20205;-51
2023/10/24 00:24:17;;;;;;;3.53;2.63;;;16.60;77.10;17.80;99545.00;;;;5069822;28;20204;-51
2023/10/24 00:26:43;;;;;;;4.73;2.70;;;16.70;76.60;17.80;99541.00;;;;5068541;28;20711;-51
2023/10/24 00:29:09;;;;;;;3.50;2.90;;;16.70;76.90;17.80;99543.00;;;;5069268;28;20178;-52
2023/10/24 00:31:35;;;;;;;4.30;2.87;;;16.70;76.40;17.80;99552.00;;;;5069338;28;20180;-53
2023/10/24 00:34:00;;;;;;;2.83;2.57;;;16.60;77.20;17.70;99543.00;;;;5068177;28;20194;-54
2023/10/24 00:36:26;;;;;;;4.70;2.87;;;16.50;77.40;17.70;99538.00;;;;5068000;28;20201;-54
2023/10/24 00:38:52;;;;;;;5.23;3.10;;;16.50;77.40;17.70;99542.00;;;;5069180;28;20686;-54
2023/10/24 00:41:18;;;;;;;3.43;2.77;;;16.50;77.40;17.60;99541.00;;;;5069309;28;20182;-54
2023/10/24 00:43:44;;;;;;;3.67;2.60;;;16.30;77.90;17.60;99561.00;;;;5068143;28;20267;-54
2023/10/24 00:46:10;;;;;;;4.43;2.77;;;16.40;78.00;17.50;99521.00;;;;5073221;28;20212;-55
2023/10/24 00:48:36;;;;;;;2.97;2.67;;;16.40;78.10;17.60;99532.00;;;;5068391;28;20200;-54
2023/10/24 00:51:02;;;;;;;5.17;2.90;;;16.50;78.00;17.60;99544.00;;;;5069136;28;20177;-54
2023/10/24 00:53:27;;;;;;;3.90;2.70;;;16.50;77.90;17.60;99540.00;;;;5069319;28;20212;-56
2023/10/24 00:55:53;;;;;;;3.93;2.40;;;16.30;78.10;17.50;99549.00;;;;5066804;28;20200;-54
2023/10/24 00:58:19;;;;;;;4.43;2.60;;;16.30;78.60;17.50;99526.00;;;;5070499;28;20174;-54
2023/10/24 01:00:45;;;;;;;4.40;2.50;;;16.30;78.30;17.50;99560.00;;;;5072189;28;20180;-55
2023/10/24 01:03:10;;;;;;;3.47;2.47;;;16.50;78.20;17.60;99577.00;;;;5067904;28;20219;-55
2023/10/24 01:05:36;;;;;;;3.10;2.53;;;16.60;78.50;17.60;99573.00;;;;5067849;28;20199;-54
2023/10/24 01:08:02;;;;;;;3.77;2.67;;;16.60;77.40;17.60;99573.00;;;;5067609;28;20273;-54
2023/10/24 01:10:28;;;;;;;3.43;2.60;;;16.60;77.30;17.60;99562.00;;;;5067039;28;20715;-54
2023/10/24 01:12:53;;;;;;;3.97;2.77;;;16.60;77.60;17.60;99553.00;;;;5067340;28;20200;-54
2023/10/24 01:15:19;;;;;;;4.07;2.90;;;16.50;78.00;17.60;99547.00;;;;5068646;28;20257;-54
2023/10/24 01:17:49;;;;;;;3.73;2.40;;;16.40;78.10;17.50;99564.00;;;;5068324;28;20251;-53
2023/10/24 01:20:15;;;;;;;4.43;2.80;;;16.30;78.50;17.50;99549.00;;;;5068653;28;20173;-54
2023/10/24 01:22:44;;;;;;;3.50;2.50;;;16.30;78.40;17.50;99544.00;;;;5068485;28;20200;-53
2023/10/24 01:25:13;;;;;;;3.93;2.33;;;16.30;78.60;17.50;99550.00;;;;5060248;28;20662;-54
2023/10/24 01:27:38;;;;;;;3.63;2.63;;;16.40;78.40;17.50;99507.00;;;;5052199;28;20180;-54
2023/10/24 01:30:05;;;;;;;3.80;2.43;;;16.40;77.70;17.50;99526.00;;;;5046674;28;20609;-55
2023/10/24 01:32:31;;;;;;;3.70;2.33;;;16.30;78.10;17.50;99534.00;;;;5048246;28;20749;-54
2023/10/24 01:42:43;;;;;;;3.70;2.33;;;16.40;77.80;17.50;99543.00;;;;5067774;28;20226;-54
2023/10/24 01:45:09;;;;;;;3.03;2.17;;;16.40;78.00;17.50;99534.00;;;;5067383;28;20192;-55
2023/10/24 01:47:35;;;;;;;2.90;2.27;;;16.50;77.70;17.50;99535.00;;;;5067447;28;20213;-54
2023/10/24 01:50:01;;;;;;;3.30;2.60;;;16.60;77.60;17.60;99508.00;;;;5067567;28;20828;-54
2023/10/24 01:52:26;;;;;;;3.37;2.57;;;16.50;77.40;17.60;99527.00;;;;5067585;28;20208;-55
2023/10/24 01:54:52;;;;;;;3.33;2.30;;;16.50;77.70;17.60;99525.00;;;;5067465;28;20180;-53
2023/10/24 01:57:18;;;;;;;2.93;2.30;;;16.60;77.60;17.60;99515.00;;;;5066229;28;20204;-54
2023/10/24 01:59:44;;;;;;;3.60;2.27;;;16.60;77.50;17.60;99511.00;;;;5067583;28;20199;-54
2023/10/24 02:02:09;;;;;;;2.50;2.30;;;16.50;77.50;17.60;99509.00;;;;5067794;28;20571;-53
2023/10/24 02:04:35;;;;;;;2.40;2.20;;;16.40;77.90;17.60;99525.00;;;;5059706;28;20181;-54
2023/10/24 02:07:01;;;;;;;4.13;2.30;;;16.50;77.90;17.60;99465.00;;;;5057630;28;20191;-54
2023/10/24 02:09:29;;;;;;;2.57;2.30;;;16.50;77.60;17.60;99527.00;;;;5061613;28;20629;-54
2023/10/24 02:11:56;;;;;;;3.17;2.20;;;16.50;77.80;17.60;99521.00;;;;5057259;28;20236;-54
2023/10/24 02:14:22;;;;;;;3.80;2.23;;;16.50;77.80;17.60;99531.00;;;;5053107;28;20271;-53
2023/10/24 02:16:48;;;;;;;2.73;2.20;;;16.50;77.60;17.60;99517.00;;;;5056518;28;20630;-53
2023/10/24 02:19:14;;;;;;;2.80;2.20;;;16.60;77.40;17.60;99541.00;;;;5067217;28;20532;-54
2023/10/24 02:21:39;;;;;;;2.87;2.40;;;16.40;77.80;17.60;99550.00;;;;5067313;28;20301;-54
2023/10/24 02:24:05;;;;;;;2.80;2.20;;;16.40;78.00;17.60;99552.00;;;;5061728;28;20581;-54
2023/10/24 02:26:31;;;;;;;2.77;2.40;;;16.50;78.00;17.60;99537.00;;;;5054602;28;20604;-53
2023/10/24 02:28:57;;;;;;;3.90;2.23;;;16.50;77.40;17.60;99535.00;;;;5056795;28;20231;-54
2023/10/24 02:31:23;;;;;;;2.50;2.10;;;16.60;77.30;17.60;99548.00;;;;5052671;28;20260;-54
2023/10/24 02:33:49;;;;;;;2.67;2.20;;;16.60;77.30;17.70;99551.00;;;;5057493;28;20188;-54
2023/10/24 02:36:15;;;;;;;3.03;2.10;;;16.60;77.10;17.70;99542.00;;;;5067399;28;20564;-54
2023/10/24 02:38:41;;;;;;;2.87;2.37;;;16.70;77.10;17.70;99551.00;;;;5054820;28;20294;-54
2023/10/24 02:41:06;;;;;;;3.33;2.27;;;16.70;76.90;17.80;99564.00;;;;5064308;28;20188;-53
2023/10/24 02:43:32;;;;;;;2.87;2.10;;;16.60;77.10;17.70;99553.00;;;;5053792;28;20313;-53
2023/10/24 02:46:04;;;;;;;3.80;2.27;;;16.50;77.70;17.70;99555.00;;;;5065571;28;20192;-54
2023/10/24 02:48:30;;;;;;;2.67;2.20;;;16.50;78.10;17.40;99563.00;;;;5066756;28;20237;-53
2023/10/24 02:50:56;;;;;;;3.57;2.23;;;16.50;78.60;17.60;99576.00;;;;5056945;28;20189;-54
2023/10/24 02:53:23;;;;;;;3.63;1.97;;;16.50;78.00;17.40;99548.00;;;;5059180;28;20245;-54
2023/10/24 02:55:49;;;;;;;4.17;2.60;;;16.40;78.10;17.60;99553.00;;;;5061563;28;20571;-54
2023/10/24 02:58:15;;;;;;;3.13;2.20;;;16.30;78.20;17.60;99547.00;;;;5067663;28;20178;-54
2023/10/24 03:00:41;;;;;;;2.53;2.00;;;16.40;78.60;17.60;99547.00;;;;5067579;28;20639;-54
2023/10/24 03:03:07;;;;;;;3.17;2.20;;;16.40;78.60;17.60;99542.00;;;;5068192;28;20196;-53
2023/10/24 03:05:33;;;;;;;3.40;2.53;;;16.50;78.30;17.60;99556.00;;;;5067196;28;20179;-52
2023/10/24 03:07:59;;;;;;;3.53;2.10;;;16.40;78.10;17.60;99545.00;;;;5067119;28;20698;-54
2023/10/24 03:10:25;;;;;;;2.80;1.80;;;16.50;78.40;17.60;99538.00;;;;5053378;28;20659;-54
2023/10/24 03:12:54;;;;;;;2.83;2.30;;;16.50;78.00;17.60;99548.00;;;;5056600;28;20200;-54
2023/10/24 03:15:20;;;;;;;3.47;2.10;;;16.60;77.80;17.60;99553.00;;;;5062244;28;20655;-54
2023/10/24 03:17:46;;;;;;;3.43;2.07;;;16.50;78.00;17.60;99560.00;;;;5050403;28;20200;-54
2023/10/24 03:20:12;;;;;;;3.27;2.20;;;16.60;77.80;17.60;99543.00;;;;5066725;28;20207;-53
2023/10/24 03:22:38;;;;;;;2.77;2.20;;;16.60;77.60;17.60;99565.00;;;;5059488;28;20212;-54
2023/10/24 03:25:04;;;;;;;3.07;2.00;;;16.50;78.10;17.60;99556.00;;;;5037211;28;20746;-53
2023/10/24 03:27:30;;;;;;;3.57;2.00;;;16.50;78.00;17.60;99550.00;;;;5068085;28;20181;-54
2023/10/24 03:29:55;;;;;;;3.70;2.27;;;16.40;78.50;17.60;99551.00;;;;5064003;28;20371;-53
2023/10/24 03:32:21;;;;;;;4.83;2.57;;;16.40;78.70;17.60;99544.00;;;;5069459;28;20896;-53
2023/10/24 03:34:47;;;;;;;3.93;2.17;;;16.40;78.70;17.50;99565.00;;;;5059993;28;20193;-52
2023/10/24 03:37:12;;;;;;;4.17;2.20;;;16.40;78.70;17.30;99563.00;;;;5067149;28;20207;-53
2023/10/24 03:39:38;;;;;;;6.50;2.43;;;16.30;78.80;17.50;99557.00;;;;5071414;28;20186;-53
2023/10/24 03:42:04;;;;;;;4.30;2.10;;;16.40;78.70;17.50;99560.00;;;;5068799;28;20208;-53
2023/10/24 03:44:30;;;;;;;4.17;2.30;;;16.20;79.50;17.40;99563.00;;;;5057782;28;20188;-53
2023/10/24 03:46:56;;;;;;;2.50;2.30;;;16.00;80.30;17.30;99549.00;;;;5070039;28;20203;-53
2023/10/24 03:49:21;;;;;;;2.87;2.20;;;16.00;80.30;17.30;99541.00;;;;5071387;28;20384;-53
2023/10/24 03:51:47;;;;;;;3.17;2.30;;;15.90;80.60;17.20;99544.00;;;;5069543;28;20195;-52
2023/10/24 03:54:13;;;;;;;3.67;2.33;;;15.80;81.80;17.10;99540.00;;;;5060726;28;20182;-53
2023/10/24 03:56:41;;;;;;;2.23;2.00;;;15.70;81.50;17.10;99552.00;;;;5068059;28;20201;-53
2023/10/24 03:59:07;;;;;;;2.70;2.10;;;15.60;81.80;17.00;99552.00;;;;5071453;28;20237;-53
2023/10/24 04:01:36;;;;;;;2.47;2.00;;;15.50;82.30;16.90;99551.00;;;;5071287;28;20657;-53
2023/10/24 04:04:01;;;;;;;3.33;2.20;;;15.50;82.80;16.90;99555.00;;;;5071260;28;20231;-53
2023/10/24 04:06:27;;;;;;;4.23;2.20;;;15.50;82.90;16.80;99564.00;;;;5071303;28;20180;-55
2023/10/24 04:08:53;;;;;;;3.73;2.30;;;15.50;82.80;16.80;99545.00;;;;5071097;28;20193;-52
2023/10/24 04:11:19;;;;;;;3.77;2.00;;;15.40;83.20;16.70;99547.00;;;;5054036;28;20179;-53
2023/10/24 04:13:46;;;;;;;3.03;2.10;;;15.40;83.30;16.70;99553.00;;;;5045433;28;20219;-52
2023/10/24 04:16:12;;;;;;;4.93;2.00;;;15.40;83.70;16.70;99550.00;;;;5070651;28;20273;-53
2023/10/24 04:18:39;;;;;;;2.30;2.10;;;15.40;83.50;16.70;99537.00;;;;5069475;28;20181;-54
2023/10/24 04:21:05;;;;;;;3.10;2.20;;;15.40;83.70;16.60;99543.00;;;;5069221;28;20257;-53
2023/10/24 04:23:30;;;;;;;2.90;2.10;;;15.30;83.90;16.60;99542.00;;;;5070680;28;20287;-53
2023/10/24 04:25:56;;;;;;;3.03;2.20;;;15.40;83.90;16.60;99546.00;;;;5070206;28;20741;-53
2023/10/24 04:28:22;;;;;;;3.30;2.00;;;15.30;83.80;16.60;99556.00;;;;5070672;28;20181;-52
2023/10/24 04:30:48;;;;;;;4.27;2.00;;;15.30;83.80;16.60;99546.00;;;;5052203;28;20730;-54
2023/10/24 04:33:14;;;;;;;4.63;2.27;;;15.40;83.60;16.60;99556.00;;;;5073883;28;20205;-53
2023/10/24 04:35:43;;;;;;;2.67;2.00;;;15.30;84.00;16.60;99561.00;;;;5071415;28;20180;-53
2023/10/24 04:38:10;;;;;;;3.43;2.20;;;15.20;84.20;16.50;99552.00;;;;5070660;28;20189;-54
2023/10/24 04:40:39;;;;;;;2.90;2.30;;;15.20;84.50;16.50;99557.00;;;;5044390;28;20202;-54
2023/10/24 04:43:06;;;;;;;2.90;2.30;;;15.10;84.90;16.50;99570.00;;;;5049806;28;20212;-54
2023/10/24 04:45:32;;;;;;;4.30;2.13;;;15.10;85.00;16.20;99561.00;;;;5049777;28;20275;-55
2023/10/24 04:48:00;;;;;;;2.47;2.07;;;15.20;84.40;16.40;99539.00;;;;5056158;28;20174;-54
2023/10/24 04:50:27;;;;;;;3.53;2.00;;;15.10;84.70;16.40;99549.00;;;;5048847;28;20174;-53
2023/10/24 04:52:53;;;;;;;2.37;2.10;;;15.00;84.90;16.40;99545.00;;;;5068090;28;20201;-53
2023/10/24 04:55:19;;;;;;;3.53;1.90;;;15.00;85.20;16.40;99542.00;;;;5070470;28;20181;-53
2023/10/24 04:57:45;;;;;;;2.00;1.90;;;15.10;85.00;16.40;99551.00;;;;5070025;28;20202;-53
2023/10/24 05:00:11;;;;;;;3.87;2.00;;;15.20;85.00;16.40;99554.00;;;;5069829;28;20170;-53
2023/10/24 05:02:38;;;;;;;2.10;1.90;;;15.20;84.40;16.40;99551.00;;;;5070115;28;20201;-53
2023/10/24 05:05:05;;;;;;;2.30;2.10;;;15.20;84.20;16.40;99555.00;;;;5069877;28;20211;-53
2023/10/24 05:07:31;;;;;;;2.57;1.97;;;15.20;84.30;16.40;99556.00;;;;5069542;28;20209;-53
2023/10/24 05:09:56;;;;;;;2.47;1.90;;;15.10;84.90;16.30;99551.00;;;;5069378;28;20213;-53
2023/10/24 05:12:22;;;;;;;2.83;2.10;;;15.10;84.90;16.40;99565.00;;;;5069560;28;20201;-53
2023/10/24 05:14:48;;;;;;;2.90;1.83;;;15.10;84.50;16.40;99548.00;;;;5069624;28;20184;-53
2023/10/24 05:17:14;;;;;;;2.97;2.17;;;15.30;84.20;16.50;99540.00;;;;5069494;28;20202;-53
2023/10/24 05:19:43;;;;;;;3.03;1.90;;;15.50;83.20;16.60;99541.00;;;;5069197;28;20208;-53
2023/10/24 05:22:10;;;;;;;2.27;2.03;;;15.60;83.10;16.70;99535.00;;;;5068886;28;20194;-54
2023/10/24 05:24:37;;;;;;;3.90;2.10;;;15.70;81.60;16.70;99536.00;;;;5068260;28;20551;-53
2023/10/24 05:27:04;;;;;;;3.60;1.90;;;15.80;81.10;16.80;99543.00;;;;5069273;28;20183;-54
2023/10/24 05:29:32;;;;;;;2.37;2.07;;;15.90;80.80;16.90;99542.00;;;;5069182;28;20213;-53
2023/10/24 05:31:58;;;;;;;2.23;1.90;;;16.00;80.40;16.90;99541.00;;;;5068679;28;20280;-53
2023/10/24 05:34:29;;;;;;;2.10;1.90;;;16.00;79.70;16.90;99552.00;;;;5068906;28;20268;-53
2023/10/24 05:36:55;;;;;;;1.80;1.70;;;15.90;80.30;17.00;99553.00;;;;5069197;28;20235;-53
2023/10/24 05:39:21;;;;;;;2.97;1.83;;;15.90;80.30;17.00;99556.00;;;;5069066;28;20192;-53
2023/10/24 05:41:50;;;;;;;2.93;1.93;;;15.90;80.30;16.90;99548.00;;;;5068124;28;20191;-52
2023/10/24 05:44:16;;;;;;;2.40;1.80;;;15.70;80.20;16.90;99555.00;;;;5069240;28;20273;-52
2023/10/24 05:46:41;;;;;;;2.37;1.87;;;15.60;80.70;16.90;99566.00;;;;5068756;28;20269;-53
2023/10/24 05:49:07;;;;;;;2.20;1.60;;;15.60;80.50;16.90;99549.00;;;;5069065;28;20180;-53
2023/10/24 05:51:33;;;;;;;1.80;1.70;;;15.80;80.60;16.90;99539.00;;;;5068180;28;20259;-53
2023/10/24 05:53:59;;;;;;;2.00;1.63;;;15.80;80.00;16.90;99548.00;;;;5069006;28;20184;-53
2023/10/24 05:56:25;;;;;;;1.90;1.80;;;15.90;80.00;16.90;99551.00;;;;5068836;28;20205;-53
2023/10/24 05:58:51;;;;;;;1.60;1.50;;;15.80;79.00;17.00;99549.00;;;;5068743;28;20190;-54
2023/10/24 06:01:17;;;;;;;2.03;1.87;;;15.90;79.70;17.00;99555.00;;;;5068243;28;20550;-53
2023/10/24 06:03:43;;;;;;;1.80;1.70;;;16.00;79.10;17.10;99539.00;;;;5068606;28;20200;-54
2023/10/24 06:06:08;;;;;;;1.87;1.77;;;16.10;79.00;17.10;99530.00;;;;5068689;28;20189;-54
2023/10/24 06:08:35;;;;;;;1.80;1.60;;;16.20;78.80;17.10;99524.00;;;;5068066;28;20618;-53
2023/10/24 06:11:02;;;;;;;1.73;1.63;;;16.20;78.60;17.10;99532.00;;;;5068250;28;20190;-53
2023/10/24 06:13:28;;;;;;;1.83;1.73;;;16.20;78.60;17.20;99524.00;;;;5068533;28;20197;-53
2023/10/24 06:15:54;;;;;;;1.70;1.60;;;16.20;78.20;17.20;99537.00;;;;5068939;28;20295;-53
2023/10/24 06:18:19;;;;;;;2.37;1.80;;;16.20;78.50;17.30;99526.00;;;;5067736;28;20206;-53
2023/10/24 06:20:46;;;;;;;1.90;1.80;;;16.20;78.30;17.30;99521.00;;;;5069142;28;20181;-52
2023/10/24 06:23:12;;;;;;;2.20;2.00;;;16.20;78.70;17.20;99519.00;;;;5069044;28;20812;-53
2023/10/24 06:25:41;;;;;;;2.23;2.00;;;16.10;78.40;17.20;99523.00;;;;5070197;28;20180;-54
2023/10/24 06:28:07;;;;;;;1.97;1.60;;;16.10;79.20;17.20;99515.00;;;;5078733;28;20188;-55
2023/10/24 06:30:33;;;;;;;1.80;1.60;;;16.10;78.80;17.20;99508.00;;;;5068322;28;20269;-55
2023/10/24 06:32:58;;;;;;;2.40;1.80;;;16.30;78.60;17.30;99517.00;;;;5068245;28;20676;-54
2023/10/24 06:35:24;;;;;;;2.57;1.60;;;16.30;78.80;17.30;99528.00;;;;5066790;28;20184;-53
2023/10/24 06:37:50;;;;;;;2.40;1.80;;;16.40;78.70;17.30;99529.00;;;;5068958;28;20204;-53
2023/10/24 06:40:16;;;;;;;2.80;1.70;;;16.50;78.80;17.40;99537.00;;;;5066619;28;20291;-54
2023/10/24 06:42:42;;;;;;;1.70;1.60;;;16.50;78.50;17.40;99504.00;;;;5050677;28;20678;-53
2023/10/24 06:45:08;;;;;;;2.83;1.90;;;16.60;78.60;17.50;99540.00;;;;5059901;28;20198;-53
2023/10/24 06:47:33;;;;;;;3.73;1.60;;;16.70;78.50;17.50;99538.00;;;;5064829;28;20177;-53
2023/10/24 06:49:59;;;;;;;4.70;1.90;;;16.80;78.30;17.60;99510.00;;;;5067516;28;20594;-53
2023/10/24 06:52:25;;;;;;;1.90;1.60;;;17.00;78.20;17.70;99528.00;;;;5066226;28;20747;-53
2023/10/24 06:54:51;;;;;;;3.33;1.70;;;17.00;78.00;17.70;99530.00;;;;5070489;28;20695;-53
2023/10/24 06:57:18;;;;;;;2.30;1.70;;;17.20;78.00;17.80;99531.00;;;;5066924;28;20246;-53
2023/10/24 06:59:43;;;;;;;6.23;1.90;;;17.30;78.20;17.90;99509.00;;;;5060434;28;20201;-53
2023/10/24 07:02:09;;;;;;;2.37;1.77;;;17.40;77.90;18.00;99508.00;;;;5071258;28;20576;-53
2023/10/24 07:04:35;;;;;;;2.00;1.50;;;17.60;78.00;18.10;99496.00;;;;5071829;28;20173;-53
2023/10/24 07:07:01;;;;;;;1.93;1.77;;;17.60;77.70;18.10;99512.00;;;;5071959;28;20196;-54
2023/10/24 07:09:26;;;;;;;1.63;1.53;;;17.70;77.80;18.20;99514.00;;;;5056928;28;20185;-53
2023/10/24 07:11:52;;;;;;;1.73;1.60;;;17.70;77.70;18.30;99524.00;;;;5070673;28;20194;-53
2023/10/24 07:14:18;;;;;;;3.43;1.70;;;17.80;77.90;18.30;99534.00;;;;5068836;28;20501;-52
2023/10/24 07:16:44;;;;;;;1.77;1.50;;;17.80;77.90;18.40;99534.00;;;;5054551;28;20210;-53
2023/10/24 07:19:10;;;;;;;2.97;1.63;;;17.90;78.20;18.40;99519.00;;;;5054619;28;20178;-53
2023/10/24 07:21:36;;;;;;;2.27;1.87;;;17.90;78.30;18.50;99527.00;;;;5050152;28;20171;-53
2023/10/24 07:24:02;;;;;;;2.77;1.73;;;17.90;78.60;18.50;99531.00;;;;5052918;28;20185;-53
2023/10/24 07:26:28;;;;;;;1.70;1.53;;;17.90;79.60;18.50;99525.00;;;;5061103;28;20239;-53
2023/10/24 07:28:54;;;;;;;2.43;1.70;;;18.00;79.10;18.60;99525.00;;;;5071175;28;20184;-53
2023/10/24 07:31:20;;;;;;;1.93;1.63;;;17.90;79.20;18.60;99523.00;;;;5058490;28;20189;-53
2023/10/24 07:33:46;;;;;;;2.27;1.73;;;18.00;79.50;18.60;99516.00;;;;5059083;28;20197;-53
2023/10/24 07:36:12;;;;;;;1.40;1.30;;;18.00;79.60;18.60;99518.00;;;;5064088;28;20237;-53
2023/10/24 07:38:38;;;;;;;2.07;1.40;;;18.00;79.60;18.60;99513.00;;;;5067976;28;20184;-53
2023/10/24 07:41:04;;;;;;;2.17;1.80;;;18.10;79.80;18.70;99519.00;;;;5069970;28;20212;-54
2023/10/24 07:43:30;;;;;;;3.60;1.90;;;18.00;79.80;18.70;99517.00;;;;5071257;28;20687;-53
2023/10/24 07:45:56;;;;;;;2.90;1.70;;;18.00;80.10;18.70;99527.00;;;;5070419;28;20186;-53
2023/10/24 07:48:23;;;;;;;2.70;1.57;;;18.00;80.40;18.70;99533.00;;;;5070702;28;20182;-53
2023/10/24 07:50:53;;;;;;;3.47;1.80;;;18.00;80.40;18.70;99530.00;;;;5067928;28;20181;-53
2023/10/24 07:53:20;;;;;;;2.30;1.50;;;18.00;80.40;18.80;99529.00;;;;5069703;28;20220;-53
2023/10/24 07:55:46;;;;;;;1.70;1.60;;;18.10;80.20;18.80;99536.00;;;;5069598;28;20189;-53
2023/10/24 07:58:12;;;;;;;1.97;1.50;;;18.00;80.00;18.80;99531.00;;;;5069709;28;20180;-53
2023/10/24 08:00:38;;;;;;;4.70;1.73;;;18.00;80.00;18.80;99533.00;;;;5068988;28;20236;-54
2023/10/24 08:03:04;;;;;;;2.03;1.70;;;18.00;79.90;18.80;99547.00;;;;5069104;28;20197;-53
2023/10/24 08:05:29;;;;;;;2.53;1.47;;;18.00;79.90;18.80;99550.00;;;;5068845;28;20174;-53
2023/10/24 08:07:55;;;;;;;2.73;1.70;;;18.00;79.80;18.80;99535.00;;;;5069507;28;20188;-52
2023/10/24 08:10:21;;;;;;;2.77;1.70;;;18.00;80.10;18.80;99544.00;;;;5063730;28;20192;-53
2023/10/24 08:12:47;;;;;;;4.40;1.73;;;18.00;81.00;18.80;99552.00;;;;5060654;28;20232;-53
2023/10/24 08:15:12;;;;;;;1.87;1.63;;;18.00;80.20;18.80;99563.00;;;;5064901;28;20182;-52
2023/10/24 08:17:38;;;;;;;1.63;1.53;;;18.00;80.00;18.80;99556.00;;;;5046255;28;20619;-53
2023/10/24 08:20:04;;;;;;;3.90;1.73;;;18.00;79.90;18.80;99551.00;;;;5068340;28;20675;-51
2023/10/24 08:22:31;;;;;;;9.00;1.80;;;18.00;80.40;18.80;99549.00;;;;5082139;28;20214;-51
2023/10/24 08:24:58;;;;;;;1.80;1.70;;;18.00;80.10;18.80;99560.00;;;;5078481;28;20306;-50
2023/10/24 08:27:24;;;;;;;1.40;1.23;;;18.00;80.20;18.80;99557.00;;;;5069881;28;20334;-50
2023/10/24 08:29:50;;;;;;;2.00;1.73;;;18.00;80.30;18.80;99557.00;;;;5068651;28;20762;-50
2023/10/24 08:32:15;;;;;;;2.20;1.50;;;18.00;80.30;18.80;99571.00;;;;5068983;28;20205;-51
2023/10/24 08:34:42;;;;;;;1.63;1.53;;;18.00;80.40;18.80;99573.00;;;;5070524;28;20185;-50
2023/10/24 08:37:08;;;;;;;2.63;1.67;;;18.00;80.40;18.80;99570.00;;;;5069795;28;20578;-51
2023/10/24 08:39:34;;;;;;;2.43;1.40;;;18.00;80.10;18.80;99569.00;;;;5071114;28;20586;-49
2023/10/24 08:42:00;;;;;;;6.33;1.80;;;18.00;80.00;18.80;99569.00;;;;5067156;28;20216;-51
2023/10/24 08:44:26;;;;;;;8.87;2.00;;;18.00;81.00;18.80;99562.00;;;;5053284;28;20187;-51
2023/10/24 08:46:52;;;;;;;4.53;1.80;;;18.00;80.10;18.80;99578.00;;;;4532731;28;15035794;-51
2023/10/24 08:49:18;;;;;;;3.27;1.87;;;18.00;79.90;18.80;99574.00;;;;5059674;28;20564;-51
2023/10/24 08:51:45;;;;;;;2.97;1.70;;;18.00;79.90;18.80;99580.00;;;;5067547;28;20644;-51
2023/10/24 08:54:11;;;;;;;3.37;1.80;;;18.00;79.80;18.80;99581.00;;;;5068221;28;20181;-51
2023/10/24 08:56:41;;;;;;;3.63;1.70;;;18.00;79.70;18.80;99578.00;;;;5069412;28;20225;-51
2023/10/24 08:59:08;;;;;;;4.23;1.70;;;18.00;79.60;18.80;99580.00;;;;5068170;28;20597;-51
2023/10/24 09:01:35;;;;;;;3.70;1.70;;;18.00;79.70;18.80;99569.00;;;;5068571;28;20182;-51
2023/10/24 09:04:02;;;;;;;3.10;1.60;;;18.00;79.60;18.80;99564.00;;;;5069292;28;20189;-51
2023/10/24 09:06:30;;;;;;;2.73;2.03;;;18.00;79.70;18.80;99560.00;;;;5069248;28;20189;-52
2023/10/24 09:08:55;;;;;;;3.50;1.60;;;18.00;79.90;18.80;99570.00;;;;5068298;28;20247;-52
2023/10/24 09:11:22;;;;;;;5.70;1.80;;;18.00;80.10;18.80;99574.00;;;;5068437;28;20640;-53
2023/10/24 09:13:48;;;;;;;2.90;1.77;;;18.00;79.60;18.80;99572.00;;;;5069153;28;20632;-53
2023/10/24 09:16:15;;;;;;;2.50;1.70;;;18.00;79.60;18.90;99566.00;;;;5068601;28;20212;-53
2023/10/24 09:18:41;;;;;;;3.20;1.70;;;18.00;79.60;18.90;99554.00;;;;5065108;28;20805;-53
2023/10/24 09:21:08;;;;;;;2.17;1.70;;;18.00;79.50;18.80;99556.00;;;;5070786;28;20189;-53
2023/10/24 09:23:37;;;;;;;3.37;1.67;;;18.00;79.40;18.80;99537.00;;;;5071871;28;20202;-54
2023/10/24 09:26:04;;;;;;;2.20;1.70;;;18.00;79.40;18.80;99556.00;;;;5067800;28;20177;-53
2023/10/24 09:28:30;;;;;;;3.43;1.80;;;18.00;79.30;18.80;99557.00;;;;5068917;28;20192;-53
2023/10/24 09:30:58;;;;;;;1.80;1.70;;;17.90;79.20;18.80;99547.00;;;;5067870;28;20268;-53
2023/10/24 09:33:28;;;;;;;4.10;1.77;;;18.00;79.30;18.80;99550.00;;;;5068867;28;20209;-52
2023/10/24 09:35:54;;;;;;;3.50;1.50;;;18.00;79.30;18.80;99529.00;;;;5062105;28;20582;-53
2023/10/24 09:38:23;;;;;;;3.10;1.47;;;17.90;79.20;18.80;99550.00;;;;5067694;28;20193;-53
2023/10/24 09:40:49;;;;;;;2.77;1.73;;;17.90;79.00;18.80;99541.00;;;;5059871;28;20181;-53
2023/10/24 09:43:22;;;;;;;2.70;1.60;;;18.00;79.20;18.80;99537.00;;;;5067299;28;20793;-54
2023/10/24 09:45:56;;;;;;;1.93;1.50;;;17.90;79.00;18.80;99531.00;;;;5069138;28;20241;-53
2023/10/24 09:48:22;;;;;;;2.83;1.70;;;17.90;79.70;18.80;99526.00;;;;5067619;28;20218;-53
2023/10/24 09:50:48;;;;;;;5.37;1.70;;;18.00;79.00;18.80;99532.00;;;;5062577;28;20185;-54
2023/10/24 09:53:14;;;;;;;2.00;1.57;;;17.90;79.10;18.80;99510.00;;;;5057882;28;20576;-54
2023/10/24 09:55:41;;;;;;;3.30;1.70;;;17.90;79.40;18.80;99515.00;;;;5046926;28;20182;-53
2023/10/24 09:58:09;;;;;;;1.70;1.60;;;17.90;79.40;18.80;99516.00;;;;5068547;28;20200;-53
2023/10/24 10:00:35;;;;;;;1.97;1.60;;;17.90;79.50;18.80;99511.00;;;;5068134;28;20185;-54
2023/10/24 10:03:00;;;;;;;1.83;1.70;;;17.90;79.80;18.80;99510.00;;;;5050063;28;20198;-54
2023/10/24 10:05:29;;;;;;;5.47;1.80;;;17.90;79.60;18.80;99513.00;;;;5061870;28;20188;-53
2023/10/24 10:07:56;;;;;;;6.73;2.00;;;17.90;79.70;18.80;99513.00;;;;5068157;28;20268;-54
2023/10/24 10:10:22;;;;;;;5.73;1.60;;;17.90;79.50;18.80;99514.00;;;;5067718;28;20193;-54
2023/10/24 10:12:47;;;;;;;3.50;1.70;;;18.00;79.40;18.80;99514.00;;;;5064515;28;20201;-53
2023/10/24 10:15:37;;;;;;;5.20;1.67;;;18.00;79.30;18.80;99503.00;;;;5067339;28;20549;-54
2023/10/24 10:18:07;;;;;;;3.07;1.70;;;18.00;79.30;18.80;99488.00;;;;5068092;28;20189;-53
2023/10/24 10:21:18;;;;;;;4.23;1.70;;;18.00;79.20;18.80;99493.00;;;;5079904;28;20223;-54
2023/10/24 10:23:55;;;;;;;3.83;1.80;;;18.00;79.20;18.80;99497.00;;;;5053854;28;20212;-54
2023/10/24 10:27:04;;;;;;;5.83;1.80;;;18.00;79.60;18.80;99493.00;;;;5067384;28;20173;-54
2023/10/24 10:30:05;;;;;;;3.07;1.60;;;18.00;79.70;18.80;99498.00;;;;5068104;28;20200;-54
2023/10/24 10:33:20;;;;;;;2.23;1.40;;;18.00;79.60;18.80;99498.00;;;;5066750;28;20194;-53
2023/10/24 10:35:57;;;;;;;1.83;1.60;;;18.00;79.60;18.80;99501.00;;;;5058386;28;20185;-54
2023/10/24 10:38:40;;;;;;;1.90;1.47;;;18.00;79.60;18.80;99491.00;;;;5068413;28;20176;-54
2023/10/24 10:41:24;;;;;;;3.30;1.70;;;18.10;79.80;18.80;99502.00;;;;5067293;28;20182;-54
2023/10/24 10:43:58;;;;;;;2.47;1.60;;;18.00;79.60;18.80;99492.00;;;;5066920;28;20181;-54
2023/10/24 10:46:27;;;;;;;2.53;1.47;;;18.00;79.70;18.80;99492.00;;;;5067801;28;20197;-53
2023/10/24 10:49:04;;;;;;;2.53;1.80;;;18.00;79.60;18.80;99489.00;;;;5068163;28;20182;-53
2023/10/24 10:51:37;;;;;;;5.53;1.90;;;18.00;79.40;18.80;99481.00;;;;5067375;28;20187;-53
2023/10/24 10:54:38;;;;;;;6.10;1.80;;;18.00;79.20;18.80;99478.00;;;;5067841;28;20223;-54
2023/10/24 10:57:04;;;;;;;10.30;1.77;;;18.10;79.10;18.80;99480.00;;;;5050074;28;20263;-54
2023/10/24 10:59:53;;;;;;;4.43;1.93;;;18.10;79.10;18.80;99469.00;;;;5069139;28;20178;-54
2023/10/24 11:02:42;;;;;;;9.13;3.33;;;18.10;79.10;18.80;99480.00;;;;5067353;28;20231;-55